Kassel, Tyskland

06:06 PM CEST on September 21, 2014 (GMT +0200)
Kassel Bettenhausen | Change Station
CLOSE
Current Station
Personal Weather Stations
Location: Kassel, HESSEN
Elevation: 466 ft
Nearby Weather Stations

Elev 466 ft 51.31 °N, 9.53 °E | Updated 41 seconds ago

Scattered Clouds
Växlande molnighet
59.5 °F
Feels Like 59.5 °F
N
1.1
Vind Växlande Vind from NV
Gusts 1.1 miles/tim

Idag
High -- | Low -- °F
--% Chance of Precip.
Yesterday
High -- | Low -- °F
Precip. -- tum
7:06 AM 7:23 PM
Fjärde kvarteret, 6% visible
Lufttryck 29.98 tum
Sikt 5.6 miles
Molnigt Few 2500 ft
Växlande molnighet 5300 ft
Daggpunkt 55 °F
Luftfuktighet 85%
Rainfall 0.14 tum
Snow Depth Not available.
UV 1 out of 12
Pollen Not available.
Air Quality Not available.
Flu Activity Not available.
METAR EDVK 211550Z 29008KT 9000 FEW025 SCT053 14/12 Q1015 RMK ATIS Y

More Conditions Fewer Conditions

Lufttryck 29.98 tum
Sikt 5.6 miles
Molnigt Few 2500 ft
Växlande molnighet 5300 ft
Daggpunkt 55 °F
Luftfuktighet 85%
Rainfall 0.14 tum
Snow Depth Not available.
UV 1 out of 12
Pollen Not available.
Air Quality Not available.
Flu Activity Not available.
METAR EDVK 211550Z 29008KT 9000 FEW025 SCT053 14/12 Q1015 RMK ATIS Y

More Conditions Fewer Conditions

10-Day Weather Forecast

Almanac

Astronomi

Sep. 21, 2014 Rise Set
Actual Time 7:06 AM CEST 7:23 PM CEST
Civil Twilight 6:33 AM CEST 7:56 PM CEST
Nautical Twilight 5:53 AM CEST 8:35 PM CEST
Astronomical Twilight 5:12 AM CEST 9:16 PM CEST
Månen 4:10 AM CEST 6:01 PM CEST
Length Of Visible Light 13h 23m
Dagens längd
12h 16m
Tomorrow will be 3m 53s shorter.
Fjärde kvarteret, 6% of the Moon is Illuminated
Idag
Fjärde kvarteret
Sep 24
New
Oct 1
Första kvarteret
Oct 8
Fullmåne
Oct 15
Sista kvarteret

Today's Extremes

Country Highs Country Lows

Community

WunderPhotos

Upload Photos

1,755,181 photos uploaded!

Nearby

Snödjup

Not available.

Earthquake Activity

Stad Distance Mag. Time & Date
No recent earthquake activity has been reported nearby.
Minimum magnitude displayed is 2.5.

Coastal Water Temperatures

Plats Temperatur
No Stations Reporting

Nearby Weather Stations